East Douglas, Massachusetts
Current Conditions -  °F | °C
As of 6:54 AM on Saturday 20 Dec 2014 (Local Time) from KORH Reporting Station
Overcast Overcast  
Wind Chill: 17°   Ceiling: 2000
Heat Index: 25°   Visibility: 10mi
Dew Point: 18°   Wind: 7mph
Humidity: 75%   Direction: 10°N
Pressure: 30.21"   Gusts: NA
Location:  42.0528°N, 71.7498°W
Report Text: KORH 201154Z 01006KT 10SM OVC020 M04/M08 A3021 RMK AO2 SLP245 T10391078 11039 21050 53024
Loading
Personal Weather Stations






























Interactive Weather Map New forecast layout! Learn more

10-Day Weather Forecast

Advertisements
Track Severe Weather on mobile